createdAt,value
2019-01-13T00:00:11.581Z,0
2019-01-13T00:01:13.800Z,0
2019-01-13T00:02:15.831Z,0
2019-01-13T00:03:17.868Z,0
2019-01-13T00:04:19.903Z,0
2019-01-13T00:05:21.951Z,0
2019-01-13T00:06:23.993Z,0
2019-01-13T00:07:26.702Z,0
2019-01-13T00:08:29.089Z,0
2019-01-13T00:09:31.134Z,0
2019-01-13T00:10:33.183Z,0
2019-01-13T00:11:35.237Z,0
2019-01-13T00:12:37.273Z,0
2019-01-13T00:13:39.305Z,0
2019-01-13T00:14:41.353Z,0
2019-01-13T00:15:43.396Z,0
2019-01-13T00:16:45.425Z,0
2019-01-13T00:17:47.491Z,0
2019-01-13T00:18:49.933Z,0
2019-01-13T00:19:51.976Z,0
2019-01-13T00:20:54.023Z,0
2019-01-13T00:21:56.064Z,0
2019-01-13T00:22:58.114Z,0
2019-01-13T00:24:00.218Z,0
2019-01-13T00:25:02.239Z,0
2019-01-13T00:26:04.284Z,0
2019-01-13T00:27:06.323Z,0
2019-01-13T00:28:08.368Z,0
2019-01-13T00:29:10.802Z,0
2019-01-13T00:30:19.011Z,0
2019-01-13T00:31:22.009Z,0
2019-01-13T00:32:24.055Z,0
2019-01-13T00:33:26.101Z,0
2019-01-13T00:34:28.148Z,0
2019-01-13T00:35:30.176Z,0
2019-01-13T00:36:33.893Z,0
2019-01-13T00:37:35.943Z,0
2019-01-13T00:38:37.990Z,0
2019-01-13T00:39:40.045Z,0
2019-01-13T00:40:42.400Z,0
2019-01-13T00:41:44.436Z,0
2019-01-13T00:42:46.465Z,0
2019-01-13T00:43:48.540Z,0
2019-01-13T00:44:50.620Z,0
2019-01-13T00:45:52.672Z,0
2019-01-13T00:46:54.859Z,0
2019-01-13T00:47:56.895Z,0
2019-01-13T00:48:59.233Z,0
2019-01-13T00:50:01.256Z,0
2019-01-13T00:51:03.316Z,0
2019-01-13T00:52:05.363Z,0
2019-01-13T00:53:07.780Z,0
2019-01-13T00:54:10.213Z,0
2019-01-13T00:55:12.524Z,0
2019-01-13T00:56:14.880Z,0
2019-01-13T00:57:16.939Z,0
2019-01-13T00:58:19.035Z,0
2019-01-13T00:59:21.348Z,0
2019-01-13T01:00:26.593Z,0
2019-01-13T01:01:28.985Z,0
2019-01-13T01:02:31.063Z,0
2019-01-13T01:03:33.129Z,0
2019-01-13T01:04:35.446Z,0
2019-01-13T01:05:37.499Z,0
2019-01-13T01:06:39.541Z,0
2019-01-13T01:07:41.877Z,0
2019-01-13T01:08:43.913Z,0
2019-01-13T01:09:46.232Z,0
2019-01-13T01:10:48.599Z,0
2019-01-13T01:11:51.314Z,0
2019-01-13T01:12:53.361Z,0
2019-01-13T01:13:55.403Z,0
2019-01-13T01:14:57.431Z,0
2019-01-13T01:15:59.474Z,0
2019-01-13T01:17:01.524Z,0
2019-01-13T01:18:03.573Z,0
2019-01-13T01:19:05.599Z,0
2019-01-13T01:20:07.935Z,0
2019-01-13T01:21:09.982Z,0
2019-01-13T01:22:12.318Z,0
2019-01-13T01:23:14.361Z,0
2019-01-13T01:24:16.409Z,0
2019-01-13T01:25:18.450Z,0
2019-01-13T01:26:20.491Z,0
2019-01-13T01:27:22.534Z,0
2019-01-13T01:28:24.563Z,0
2019-01-13T01:29:26.602Z,0
2019-01-13T01:30:33.371Z,0
2019-01-13T01:31:35.632Z,0
2019-01-13T01:32:37.673Z,0
2019-01-13T01:33:39.711Z,0
2019-01-13T01:34:41.763Z,0
2019-01-13T01:35:44.101Z,0
2019-01-13T01:36:46.153Z,0
2019-01-13T01:37:48.184Z,0
2019-01-13T01:38:50.240Z,0
2019-01-13T01:39:52.301Z,0
2019-01-13T01:40:54.320Z,0
2019-01-13T01:41:56.385Z,0
2019-01-13T01:42:58.433Z,0
2019-01-13T01:44:00.845Z,0
2019-01-13T01:45:02.890Z,0
2019-01-13T01:46:04.943Z,0
2019-01-13T01:47:07.654Z,0
2019-01-13T01:48:09.688Z,0
2019-01-13T01:49:12.013Z,0
2019-01-13T01:50:14.062Z,0
2019-01-13T01:51:16.103Z,0
2019-01-13T01:52:18.142Z,0
2019-01-13T01:53:20.184Z,0
2019-01-13T01:54:22.221Z,0
2019-01-13T01:55:24.328Z,0
2019-01-13T01:56:26.369Z,0
2019-01-13T01:57:28.409Z,0
2019-01-13T01:58:30.447Z,0
2019-01-13T01:59:33.209Z,0
2019-01-13T02:00:40.437Z,0
2019-01-13T02:01:43.063Z,0
2019-01-13T02:02:45.121Z,0
2019-01-13T02:03:47.506Z,0
2019-01-13T02:04:49.544Z,0
2019-01-13T02:05:52.280Z,0
2019-01-13T02:06:54.559Z,0
2019-01-13T02:07:56.606Z,0
2019-01-13T02:08:58.823Z,0
2019-01-13T02:10:00.863Z,0
2019-01-13T02:11:02.903Z,0
2019-01-13T02:12:04.922Z,0
2019-01-13T02:13:06.963Z,0
2019-01-13T02:14:08.988Z,0
2019-01-13T02:15:11.072Z,0
2019-01-13T02:16:13.112Z,0
2019-01-13T02:17:15.423Z,0
2019-01-13T02:18:17.451Z,0
2019-01-13T02:19:19.882Z,0
2019-01-13T02:20:21.934Z,0
2019-01-13T02:21:23.999Z,0
2019-01-13T02:22:26.049Z,0
2019-01-13T02:23:28.081Z,0
2019-01-13T02:24:30.129Z,0
2019-01-13T02:25:32.169Z,0
2019-01-13T02:26:34.483Z,0
2019-01-13T02:27:36.535Z,0
2019-01-13T02:28:38.573Z,0
2019-01-13T02:29:40.618Z,0
2019-01-13T02:30:48.938Z,0
2019-01-13T02:31:51.550Z,0
2019-01-13T02:32:53.980Z,0
2019-01-13T02:33:56.412Z,0
2019-01-13T02:34:58.463Z,0
2019-01-13T02:36:00.515Z,0
2019-01-13T02:37:02.853Z,0
2019-01-13T02:38:04.894Z,0
2019-01-13T02:39:07.379Z,0
2019-01-13T02:40:09.742Z,0
2019-01-13T02:41:12.393Z,0
2019-01-13T02:42:14.464Z,0
2019-01-13T02:43:16.778Z,0
2019-01-13T02:44:19.110Z,0
2019-01-13T02:45:21.416Z,0
2019-01-13T02:46:23.451Z,0
2019-01-13T02:47:26.223Z,0
2019-01-13T02:48:28.253Z,0
2019-01-13T02:49:30.298Z,0
2019-01-13T02:50:32.341Z,0
2019-01-13T02:51:34.671Z,0
2019-01-13T02:52:36.728Z,0
2019-01-13T02:53:39.053Z,0
2019-01-13T02:54:41.088Z,0
2019-01-13T02:55:43.119Z,0
2019-01-13T02:56:45.188Z,0
2019-01-13T02:57:47.266Z,0
2019-01-13T02:58:49.994Z,0
2019-01-13T02:59:52.061Z,0
2019-01-13T03:00:57.152Z,0
2019-01-13T03:01:59.463Z,0
2019-01-13T03:03:01.528Z,0
2019-01-13T03:04:03.866Z,0
2019-01-13T03:05:06.612Z,0
2019-01-13T03:06:08.955Z,0
2019-01-13T03:07:10.999Z,0
2019-01-13T03:08:13.049Z,0
2019-01-13T03:09:15.828Z,0
2019-01-13T03:10:17.908Z,0
2019-01-13T03:11:20.356Z,0
2019-01-13T03:12:22.722Z,0
2019-01-13T03:13:24.780Z,0
2019-01-13T03:14:26.836Z,0
2019-01-13T03:15:28.862Z,0
2019-01-13T03:16:31.307Z,0
2019-01-13T03:17:33.369Z,0
2019-01-13T03:18:35.434Z,0
2019-01-13T03:19:37.506Z,0
2019-01-13T03:20:39.551Z,0
2019-01-13T03:21:41.895Z,0
2019-01-13T03:22:44.645Z,0
2019-01-13T03:23:46.690Z,0
2019-01-13T03:24:49.117Z,0
2019-01-13T03:25:51.171Z,0
2019-01-13T03:26:53.236Z,0
2019-01-13T03:27:55.359Z,0
2019-01-13T03:28:57.409Z,0
2019-01-13T03:29:59.762Z,0
2019-01-13T03:31:11.020Z,0
2019-01-13T03:32:15.243Z,0
2019-01-13T03:33:17.326Z,0
2019-01-13T03:34:20.138Z,0
2019-01-13T03:35:22.179Z,0
2019-01-13T03:36:24.811Z,0
2019-01-13T03:37:27.157Z,0
2019-01-13T03:38:29.512Z,0
2019-01-13T03:39:31.548Z,0
2019-01-13T03:40:33.593Z,0
2019-01-13T03:41:35.612Z,0
2019-01-13T03:42:37.657Z,0
2019-01-13T03:43:39.709Z,0
2019-01-13T03:44:41.789Z,0
2019-01-13T03:45:44.134Z,0
2019-01-13T03:46:46.480Z,0
2019-01-13T03:47:48.796Z,0
2019-01-13T03:48:51.271Z,0
2019-01-13T03:49:53.605Z,0
2019-01-13T03:50:56.841Z,0
2019-01-13T03:51:58.929Z,0
2019-01-13T03:53:00.990Z,0
2019-01-13T03:54:03.033Z,0
2019-01-13T03:55:05.102Z,0
2019-01-13T03:56:07.535Z,0
2019-01-13T03:57:10.435Z,0
2019-01-13T03:58:12.481Z,0
2019-01-13T03:59:14.517Z,0
2019-01-13T04:00:16.555Z,0
2019-01-13T04:01:18.913Z,0
2019-01-13T04:02:21.276Z,0
2019-01-13T04:03:23.614Z,0
2019-01-13T04:04:25.664Z,0
2019-01-13T04:05:27.712Z,0
2019-01-13T04:06:29.753Z,0
2019-01-13T04:07:31.837Z,0
2019-01-13T04:08:34.563Z,0
2019-01-13T04:09:36.999Z,0
2019-01-13T04:10:39.054Z,0
2019-01-13T04:11:41.111Z,0
2019-01-13T04:12:43.144Z,0
2019-01-13T04:13:45.247Z,0
2019-01-13T04:14:47.687Z,0
2019-01-13T04:15:50.006Z,0
2019-01-13T04:16:52.067Z,0
2019-01-13T04:17:54.125Z,0
2019-01-13T04:18:56.192Z,0
2019-01-13T04:19:58.255Z,0
2019-01-13T04:21:00.696Z,0
2019-01-13T04:22:02.766Z,0
2019-01-13T04:23:04.830Z,0
2019-01-13T04:24:06.899Z,0
2019-01-13T04:25:08.976Z,0
2019-01-13T04:26:11.032Z,0
2019-01-13T04:27:13.339Z,0
2019-01-13T04:28:15.659Z,0
2019-01-13T04:29:17.705Z,0
2019-01-13T04:30:20.040Z,0
2019-01-13T04:31:26.545Z,0
2019-01-13T04:32:29.007Z,0
2019-01-13T04:33:31.343Z,0
2019-01-13T04:34:33.674Z,0
2019-01-13T04:35:36.106Z,0
2019-01-13T04:36:38.155Z,0
2019-01-13T04:37:40.595Z,0
2019-01-13T04:38:42.633Z,0
2019-01-13T04:39:44.663Z,0
2019-01-13T04:40:46.683Z,0
2019-01-13T04:41:48.726Z,0
2019-01-13T04:42:51.073Z,0
2019-01-13T04:43:53.140Z,0
2019-01-13T04:44:55.208Z,0
2019-01-13T04:45:57.242Z,0
2019-01-13T04:46:59.275Z,0
2019-01-13T04:48:01.321Z,0
2019-01-13T04:49:03.366Z,0
2019-01-13T04:50:05.718Z,0
2019-01-13T04:51:07.745Z,0
2019-01-13T04:52:10.071Z,0
2019-01-13T04:53:12.109Z,0
2019-01-13T04:54:14.204Z,0
2019-01-13T04:55:16.930Z,0
2019-01-13T04:56:18.974Z,0
2019-01-13T04:57:21.038Z,0
2019-01-13T04:58:23.083Z,0
2019-01-13T04:59:25.440Z,0
2019-01-13T05:00:27.491Z,0
2019-01-13T05:01:34.299Z,0
2019-01-13T05:02:39.103Z,0
2019-01-13T05:03:41.154Z,0
2019-01-13T05:04:43.223Z,0
2019-01-13T05:05:45.287Z,0
2019-01-13T05:06:47.348Z,0
2019-01-13T05:07:49.784Z,0
2019-01-13T05:08:52.118Z,0
2019-01-13T05:09:54.565Z,0
2019-01-13T05:10:56.604Z,0
2019-01-13T05:11:58.632Z,0
2019-01-13T05:13:00.968Z,0
2019-01-13T05:14:03.316Z,0
2019-01-13T05:15:05.355Z,0
2019-01-13T05:16:07.781Z,0
2019-01-13T05:17:09.817Z,0
2019-01-13T05:18:11.860Z,0
2019-01-13T05:19:13.896Z,0
2019-01-13T05:20:16.215Z,0
2019-01-13T05:21:18.702Z,0
2019-01-13T05:22:21.042Z,0
2019-01-13T05:23:23.098Z,0
2019-01-13T05:24:25.167Z,0
2019-01-13T05:25:27.225Z,0
2019-01-13T05:26:29.308Z,0
2019-01-13T05:27:31.624Z,0
2019-01-13T05:28:33.667Z,0
2019-01-13T05:29:35.705Z,0
2019-01-13T05:30:38.028Z,0
2019-01-13T05:31:42.006Z,0
2019-01-13T05:32:44.252Z,0
2019-01-13T05:33:46.563Z,0
2019-01-13T05:34:48.999Z,0
2019-01-13T05:35:51.052Z,0
2019-01-13T05:36:53.093Z,0
2019-01-13T05:37:55.142Z,0
2019-01-13T05:38:57.480Z,0
2019-01-13T05:39:59.537Z,0
2019-01-13T05:41:01.707Z,0
2019-01-13T05:42:03.746Z,0
2019-01-13T05:43:05.806Z,0
2019-01-13T05:44:07.889Z,0
2019-01-13T05:45:09.905Z,0
2019-01-13T05:46:11.964Z,0
2019-01-13T05:47:14.322Z,0
2019-01-13T05:48:16.795Z,0
2019-01-13T05:49:19.132Z,0
2019-01-13T05:50:21.182Z,0
2019-01-13T05:51:23.229Z,0
2019-01-13T05:52:25.261Z,0
2019-01-13T05:53:27.303Z,0
2019-01-13T05:54:29.338Z,0
2019-01-13T05:55:31.389Z,0
2019-01-13T05:56:33.433Z,0
2019-01-13T05:57:35.476Z,0
2019-01-13T05:58:37.796Z,0
2019-01-13T05:59:39.833Z,0
2019-01-13T06:00:41.877Z,0
2019-01-13T06:01:49.041Z,0
2019-01-13T06:02:51.376Z,0
2019-01-13T06:03:53.709Z,0
2019-01-13T06:04:55.788Z,0
2019-01-13T06:05:57.867Z,0
2019-01-13T06:06:59.893Z,0
2019-01-13T06:08:01.947Z,0
2019-01-13T06:09:04.276Z,0
2019-01-13T06:10:06.606Z,0
2019-01-13T06:11:09.210Z,0
2019-01-13T06:12:11.538Z,0
2019-01-13T06:13:13.564Z,0
2019-01-13T06:14:15.622Z,0
2019-01-13T06:15:17.663Z,0
2019-01-13T06:16:19.684Z,0
2019-01-13T06:17:21.745Z,0
2019-01-13T06:18:23.783Z,0
2019-01-13T06:19:25.822Z,0
2019-01-13T06:20:27.858Z,0
2019-01-13T06:21:29.895Z,0
2019-01-13T06:22:32.216Z,0
2019-01-13T06:23:34.932Z,0
2019-01-13T06:24:36.998Z,0
2019-01-13T06:25:39.036Z,0
2019-01-13T06:26:41.077Z,0
2019-01-13T06:27:43.398Z,0
2019-01-13T06:28:45.451Z,0
2019-01-13T06:29:48.072Z,0
2019-01-13T06:30:50.106Z,0
2019-01-13T06:31:56.185Z,0
2019-01-13T06:32:58.502Z,0
2019-01-13T06:34:00.551Z,0
2019-01-13T06:35:02.600Z,0
2019-01-13T06:36:04.637Z,0
2019-01-13T06:37:06.969Z,0
2019-01-13T06:38:09.024Z,0
2019-01-13T06:39:11.072Z,0
2019-01-13T06:40:13.116Z,0
2019-01-13T06:41:15.142Z,0
2019-01-13T06:42:17.183Z,0
2019-01-13T06:43:19.216Z,0
2019-01-13T06:44:21.246Z,0
2019-01-13T06:45:23.313Z,0
2019-01-13T06:46:25.348Z,0
2019-01-13T06:47:27.378Z,0
2019-01-13T06:48:29.412Z,0
2019-01-13T06:49:31.451Z,4
2019-01-13T06:50:33.506Z,4
2019-01-13T06:51:35.557Z,0
2019-01-13T06:52:37.595Z,4
2019-01-13T06:53:39.635Z,4
2019-01-13T06:54:41.692Z,4
2019-01-13T06:55:43.722Z,4
2019-01-13T06:56:45.770Z,4
2019-01-13T06:57:47.800Z,8
2019-01-13T06:58:50.114Z,4
2019-01-13T06:59:52.184Z,8
2019-01-13T07:00:54.220Z,8
2019-01-13T07:02:03.171Z,12
2019-01-13T07:03:05.723Z,12
2019-01-13T07:04:08.040Z,16
2019-01-13T07:05:10.082Z,12
2019-01-13T07:06:12.413Z,20
2019-01-13T07:07:14.452Z,20
2019-01-13T07:08:16.486Z,20
2019-01-13T07:09:18.525Z,20
2019-01-13T07:10:20.856Z,28
2019-01-13T07:11:22.904Z,24
2019-01-13T07:12:24.939Z,24
2019-01-13T07:13:26.981Z,36
2019-01-13T07:14:29.030Z,44
2019-01-13T07:15:31.095Z,44
2019-01-13T07:16:33.141Z,40
2019-01-13T07:17:35.190Z,48
2019-01-13T07:18:37.242Z,60
2019-01-13T07:19:39.348Z,76
2019-01-13T07:20:41.373Z,88
2019-01-13T07:21:43.694Z,92
2019-01-13T07:22:45.724Z,100
2019-01-13T07:23:48.054Z,108
2019-01-13T07:24:50.106Z,112
2019-01-13T07:25:52.153Z,128
2019-01-13T07:26:54.191Z,148
2019-01-13T07:27:56.232Z,160
2019-01-13T07:28:58.270Z,184
2019-01-13T07:30:00.307Z,184
2019-01-13T07:31:02.353Z,192
2019-01-13T07:32:10.684Z,212
2019-01-13T07:33:12.912Z,220
2019-01-13T07:34:15.003Z,212
2019-01-13T07:35:17.109Z,188
2019-01-13T07:36:19.177Z,192
2019-01-13T07:37:21.228Z,164
2019-01-13T07:38:24.497Z,164
2019-01-13T07:39:26.679Z,172
2019-01-13T07:40:28.716Z,196
2019-01-13T07:41:31.151Z,260
2019-01-13T07:42:33.192Z,244
2019-01-13T07:43:35.235Z,232
2019-01-13T07:44:37.280Z,280
2019-01-13T07:45:39.336Z,208
2019-01-13T07:46:41.393Z,244
2019-01-13T07:47:43.450Z,236
2019-01-13T07:48:45.781Z,316
2019-01-13T07:49:47.814Z,292
2019-01-13T07:50:49.862Z,268
2019-01-13T07:51:51.926Z,268
2019-01-13T07:52:54.357Z,304
2019-01-13T07:53:56.411Z,344
2019-01-13T07:54:58.452Z,452
2019-01-13T07:56:00.472Z,492
2019-01-13T07:57:02.505Z,432
2019-01-13T07:58:04.931Z,568
2019-01-13T07:59:06.988Z,588
2019-01-13T08:00:09.025Z,564
2019-01-13T08:01:11.059Z,732
2019-01-13T08:02:17.781Z,768
2019-01-13T08:03:20.107Z,660
2019-01-13T08:04:22.129Z,620
2019-01-13T08:05:24.462Z,592
2019-01-13T08:06:26.518Z,464
2019-01-13T08:07:28.574Z,440
2019-01-13T08:08:30.612Z,452
2019-01-13T08:09:32.650Z,572
2019-01-13T08:10:34.682Z,680
2019-01-13T08:11:37.001Z,836
2019-01-13T08:12:39.057Z,824
2019-01-13T08:13:41.090Z,740
2019-01-13T08:14:43.126Z,736
2019-01-13T08:15:45.156Z,708
2019-01-13T08:16:47.189Z,828
2019-01-13T08:17:49.241Z,916
2019-01-13T08:18:51.281Z,948
2019-01-13T08:19:53.343Z,1124
2019-01-13T08:20:55.384Z,1284
2019-01-13T08:21:57.419Z,1180
2019-01-13T08:22:59.889Z,1156
2019-01-13T08:24:02.251Z,932
2019-01-13T08:25:04.304Z,944
2019-01-13T08:26:06.635Z,1080
2019-01-13T08:27:08.679Z,1148
2019-01-13T08:28:10.733Z,1292
2019-01-13T08:29:12.796Z,1524
2019-01-13T08:30:14.905Z,1512
2019-01-13T08:31:16.966Z,2004
2019-01-13T08:32:24.876Z,1996
2019-01-13T08:33:27.408Z,2344
2019-01-13T08:34:29.464Z,2416
2019-01-13T08:35:31.505Z,2140
2019-01-13T08:36:33.534Z,2112
2019-01-13T08:37:35.583Z,2148
2019-01-13T08:38:37.918Z,2104
2019-01-13T08:39:39.965Z,2164
2019-01-13T08:40:42.022Z,2140
2019-01-13T08:41:44.056Z,2164
2019-01-13T08:42:46.097Z,2184
2019-01-13T08:43:48.809Z,2028
2019-01-13T08:44:50.846Z,2100
2019-01-13T08:45:53.195Z,2336
2019-01-13T08:46:55.233Z,2160
2019-01-13T08:47:57.276Z,2292
2019-01-13T08:48:59.329Z,2076
2019-01-13T08:50:01.367Z,2264
2019-01-13T08:51:03.438Z,2072
2019-01-13T08:52:05.500Z,2220
2019-01-13T08:53:07.557Z,2340
2019-01-13T08:54:09.601Z,2348
2019-01-13T08:55:11.654Z,2376
2019-01-13T08:56:13.979Z,2188
2019-01-13T08:57:16.018Z,2076
2019-01-13T08:58:18.068Z,1876
2019-01-13T08:59:20.483Z,1872
2019-01-13T09:00:22.532Z,2016
2019-01-13T09:01:24.580Z,2140
2019-01-13T09:02:32.136Z,2188
2019-01-13T09:03:34.402Z,2232
2019-01-13T09:04:36.465Z,2220
2019-01-13T09:05:38.512Z,2124
2019-01-13T09:06:40.554Z,2212
2019-01-13T09:07:42.609Z,2564
2019-01-13T09:08:44.660Z,2392
2019-01-13T09:09:46.697Z,2544
2019-01-13T09:10:48.750Z,2568
2019-01-13T09:11:50.798Z,2584
2019-01-13T09:12:56.746Z,3048
2019-01-13T09:13:59.135Z,2908
2019-01-13T09:15:01.179Z,2896
2019-01-13T09:16:03.219Z,2892
2019-01-13T09:17:05.252Z,2544
2019-01-13T09:18:07.374Z,2440
2019-01-13T09:19:09.486Z,2284
2019-01-13T09:20:11.574Z,2720
2019-01-13T09:21:13.910Z,2644
2019-01-13T09:22:15.973Z,2436
2019-01-13T09:23:18.028Z,2736
2019-01-13T09:24:21.059Z,2332
2019-01-13T09:25:23.090Z,2700
2019-01-13T09:26:25.144Z,2876
2019-01-13T09:27:27.192Z,2748
2019-01-13T09:28:29.237Z,2788
2019-01-13T09:29:31.295Z,2824
2019-01-13T09:30:33.326Z,2612
2019-01-13T09:31:35.565Z,2704
2019-01-13T09:32:39.470Z,3176
2019-01-13T09:33:41.780Z,3160
2019-01-13T09:34:45.219Z,3108
2019-01-13T09:35:47.327Z,3132
2019-01-13T09:36:50.018Z,2956
2019-01-13T09:37:52.120Z,2764
2019-01-13T09:38:54.307Z,3148
2019-01-13T09:39:56.779Z,3088
2019-01-13T09:40:58.982Z,2992
2019-01-13T09:42:01.022Z,3000
2019-01-13T09:43:03.065Z,2908
2019-01-13T09:44:05.157Z,3152
2019-01-13T09:45:07.205Z,3292
2019-01-13T09:46:09.250Z,3360
2019-01-13T09:47:11.298Z,3552
2019-01-13T09:48:13.632Z,3128
2019-01-13T09:49:15.677Z,3012
2019-01-13T09:50:17.716Z,3164
2019-01-13T09:51:19.796Z,3300
2019-01-13T09:52:21.843Z,3408
2019-01-13T09:53:25.278Z,3604
2019-01-13T09:54:27.429Z,3124
2019-01-13T09:55:29.525Z,2944
2019-01-13T09:56:31.606Z,3248
2019-01-13T09:57:33.715Z,3064
2019-01-13T09:58:35.746Z,2984
2019-01-13T09:59:39.763Z,2828
2019-01-13T10:00:41.805Z,2900
2019-01-13T10:01:43.839Z,2936
2019-01-13T10:02:46.716Z,2660
2019-01-13T10:03:49.015Z,2688
2019-01-13T10:04:51.077Z,2352
2019-01-13T10:05:53.125Z,2668
2019-01-13T10:06:55.437Z,2524
2019-01-13T10:07:57.494Z,2460
2019-01-13T10:08:59.524Z,2304
2019-01-13T10:10:01.575Z,2264
2019-01-13T10:11:04.022Z,2240
2019-01-13T10:12:06.086Z,2248
2019-01-13T10:13:08.138Z,2316
2019-01-13T10:14:10.197Z,2476
2019-01-13T10:15:13.842Z,2880
2019-01-13T10:16:16.384Z,2812
2019-01-13T10:17:18.724Z,3460
2019-01-13T10:18:20.767Z,3920
2019-01-13T10:19:22.792Z,3728
2019-01-13T10:20:24.850Z,4336
2019-01-13T10:21:26.891Z,3840
2019-01-13T10:22:28.969Z,3792
2019-01-13T10:23:31.023Z,3660
2019-01-13T10:24:33.059Z,3956
2019-01-13T10:25:35.395Z,3752
2019-01-13T10:26:37.449Z,4096
2019-01-13T10:27:39.497Z,4136
2019-01-13T10:28:41.547Z,4380
2019-01-13T10:29:43.892Z,4440
2019-01-13T10:30:45.921Z,4084
2019-01-13T10:31:47.948Z,3852
2019-01-13T10:32:54.405Z,4176
2019-01-13T10:33:57.397Z,4060
2019-01-13T10:34:59.737Z,4260
2019-01-13T10:36:01.794Z,4700
2019-01-13T10:37:04.585Z,4840
2019-01-13T10:38:06.640Z,4336
2019-01-13T10:39:08.691Z,3648
2019-01-13T10:40:11.014Z,3884
2019-01-13T10:41:13.063Z,4208
2019-01-13T10:42:15.108Z,4356
2019-01-13T10:43:17.143Z,4352
2019-01-13T10:44:19.208Z,4900
2019-01-13T10:45:21.266Z,4708
2019-01-13T10:46:23.361Z,4616
2019-01-13T10:47:25.419Z,3812
2019-01-13T10:48:27.460Z,4024
2019-01-13T10:49:30.367Z,4456
2019-01-13T10:50:32.417Z,4180
2019-01-13T10:51:34.444Z,4500
2019-01-13T10:52:36.502Z,4044
2019-01-13T10:53:38.538Z,3260
2019-01-13T10:54:40.603Z,3212
2019-01-13T10:55:42.652Z,3972
2019-01-13T10:56:44.696Z,3828
2019-01-13T10:57:46.749Z,4092
2019-01-13T10:58:48.813Z,5108
2019-01-13T10:59:50.871Z,4532
2019-01-13T11:00:53.206Z,4540
2019-01-13T11:01:55.261Z,4888
2019-01-13T11:03:01.949Z,4284
2019-01-13T11:04:04.976Z,4456
2019-01-13T11:05:07.051Z,4680
2019-01-13T11:06:09.092Z,3216
2019-01-13T11:07:11.416Z,3060
2019-01-13T11:08:13.457Z,2528
2019-01-13T11:09:15.786Z,2452
2019-01-13T11:10:17.823Z,2292
2019-01-13T11:11:20.269Z,2632
2019-01-13T11:12:22.333Z,2532
2019-01-13T11:13:24.401Z,2540
2019-01-13T11:14:26.464Z,2384
2019-01-13T11:15:28.805Z,2472
2019-01-13T11:16:30.860Z,2888
2019-01-13T11:17:32.920Z,2996
2019-01-13T11:18:34.971Z,3324
2019-01-13T11:19:37.050Z,3220
2019-01-13T11:20:39.104Z,2576
2019-01-13T11:21:41.539Z,2644
2019-01-13T11:22:43.595Z,2600
2019-01-13T11:23:45.630Z,2268
2019-01-13T11:24:47.673Z,2764
2019-01-13T11:25:49.737Z,2532
2019-01-13T11:26:51.782Z,2872
2019-01-13T11:27:53.845Z,3932
2019-01-13T11:28:56.167Z,3440
2019-01-13T11:29:58.208Z,3604
2019-01-13T11:31:01.096Z,3200
2019-01-13T11:32:03.147Z,3512
2019-01-13T11:33:09.278Z,3452
2019-01-13T11:34:11.882Z,3576
2019-01-13T11:35:13.932Z,2932
2019-01-13T11:36:16.370Z,2780
2019-01-13T11:37:18.419Z,2936
2019-01-13T11:38:20.478Z,2532
2019-01-13T11:39:22.532Z,2452
2019-01-13T11:40:24.592Z,2432
2019-01-13T11:41:27.012Z,1976
2019-01-13T11:42:29.437Z,1816
2019-01-13T11:43:35.429Z,1700
2019-01-13T11:44:37.596Z,1788
2019-01-13T11:45:39.974Z,1328
2019-01-13T11:46:42.183Z,1164
2019-01-13T11:47:44.598Z,1348
2019-01-13T11:48:46.648Z,1172
2019-01-13T11:49:48.706Z,1100
2019-01-13T11:50:50.750Z,1116
2019-01-13T11:51:52.806Z,1140
2019-01-13T11:52:55.244Z,1008
2019-01-13T11:53:57.288Z,1016
2019-01-13T11:54:59.331Z,1112
2019-01-13T11:56:01.419Z,1532
2019-01-13T11:57:03.769Z,3012
2019-01-13T11:58:05.812Z,3844
2019-01-13T11:59:07.856Z,3508
2019-01-13T12:00:09.906Z,4080
2019-01-13T12:01:11.950Z,5516
2019-01-13T12:02:13.997Z,4720
2019-01-13T12:03:16.859Z,3828
2019-01-13T12:04:19.256Z,3440
2019-01-13T12:05:21.297Z,3024
2019-01-13T12:06:23.348Z,2948
2019-01-13T12:07:25.401Z,2860
2019-01-13T12:08:27.444Z,2752
2019-01-13T12:09:29.486Z,2860
2019-01-13T12:10:32.041Z,2488
2019-01-13T12:11:34.181Z,2412
2019-01-13T12:12:36.221Z,2520
2019-01-13T12:13:38.267Z,2460
2019-01-13T12:14:40.316Z,2592
2019-01-13T12:15:42.759Z,2452
2019-01-13T12:16:44.794Z,2028
2019-01-13T12:17:46.834Z,2340
2019-01-13T12:18:49.269Z,2180
2019-01-13T12:19:51.323Z,2380
2019-01-13T12:20:53.375Z,2340
2019-01-13T12:21:56.036Z,2628
2019-01-13T12:22:58.152Z,2928
2019-01-13T12:24:00.212Z,2548
2019-01-13T12:25:02.267Z,2296
2019-01-13T12:26:04.673Z,2292
2019-01-13T12:27:07.402Z,2804
2019-01-13T12:28:09.463Z,2484
2019-01-13T12:29:11.517Z,2712
2019-01-13T12:30:13.566Z,2984
2019-01-13T12:31:15.636Z,2500
2019-01-13T12:32:17.676Z,2668
2019-01-13T12:33:24.446Z,3156
2019-01-13T12:34:27.187Z,2552
2019-01-13T12:35:29.247Z,2600
2019-01-13T12:36:31.587Z,2852
2019-01-13T12:37:33.653Z,2792
2019-01-13T12:38:35.704Z,2876
2019-01-13T12:39:37.778Z,3012
2019-01-13T12:40:40.114Z,2792
2019-01-13T12:41:42.148Z,2524
2019-01-13T12:42:44.192Z,2552
2019-01-13T12:43:46.282Z,3848
2019-01-13T12:44:48.337Z,3612
2019-01-13T12:45:50.672Z,4528
2019-01-13T12:46:52.727Z,3816
2019-01-13T12:47:55.141Z,3468
2019-01-13T12:48:57.466Z,3176
2019-01-13T12:49:59.895Z,2480
2019-01-13T12:51:02.521Z,3136
2019-01-13T12:52:07.759Z,3420
2019-01-13T12:53:09.803Z,4064
2019-01-13T12:54:12.157Z,3532
2019-01-13T12:55:14.208Z,3780
2019-01-13T12:56:16.277Z,3160
2019-01-13T12:57:18.582Z,2836
2019-01-13T12:58:20.610Z,2844
2019-01-13T12:59:22.936Z,2600
2019-01-13T13:00:24.975Z,2672
2019-01-13T13:01:27.065Z,2660
2019-01-13T13:02:29.124Z,2688
2019-01-13T13:03:32.019Z,2756
2019-01-13T13:04:34.087Z,2768
2019-01-13T13:05:36.129Z,3100
2019-01-13T13:06:38.174Z,3876
2019-01-13T13:07:40.278Z,2880
2019-01-13T13:08:42.721Z,2508
2019-01-13T13:09:44.763Z,2220
2019-01-13T13:10:46.825Z,2524
2019-01-13T13:11:48.945Z,2560
2019-01-13T13:12:51.000Z,2724
2019-01-13T13:13:53.062Z,2564
2019-01-13T13:14:55.115Z,2256
2019-01-13T13:15:57.154Z,2252
2019-01-13T13:16:59.214Z,2428
2019-01-13T13:18:01.256Z,3236
2019-01-13T13:19:03.317Z,2508
2019-01-13T13:20:05.366Z,2008
2019-01-13T13:21:07.704Z,2112
2019-01-13T13:22:09.744Z,2068
2019-01-13T13:23:11.783Z,2008
2019-01-13T13:24:13.845Z,1868
2019-01-13T13:25:15.897Z,1600
2019-01-13T13:26:17.969Z,1880
2019-01-13T13:27:20.299Z,1988
2019-01-13T13:28:22.341Z,1716
2019-01-13T13:29:24.378Z,1732
2019-01-13T13:30:26.420Z,2336
2019-01-13T13:31:28.470Z,2912
2019-01-13T13:32:30.513Z,2900
2019-01-13T13:33:38.648Z,2404
2019-01-13T13:34:40.944Z,2736
2019-01-13T13:35:42.976Z,3776
2019-01-13T13:36:45.408Z,3084
2019-01-13T13:37:47.457Z,2764
2019-01-13T13:38:49.508Z,3080
2019-01-13T13:39:51.609Z,2816
2019-01-13T13:40:53.648Z,2448
2019-01-13T13:41:55.970Z,2080
2019-01-13T13:42:58.014Z,1844
2019-01-13T13:44:00.058Z,2540
2019-01-13T13:45:02.119Z,2916
2019-01-13T13:46:04.181Z,2276
2019-01-13T13:47:06.630Z,1804
2019-01-13T13:48:08.675Z,1964
2019-01-13T13:49:10.721Z,2112
2019-01-13T13:50:12.802Z,2544
2019-01-13T13:51:14.859Z,2104
2019-01-13T13:52:16.898Z,1880
2019-01-13T13:53:18.947Z,1844
2019-01-13T13:54:20.990Z,1656
2019-01-13T13:55:23.031Z,1504
2019-01-13T13:56:25.092Z,1780
2019-01-13T13:57:27.125Z,1796
2019-01-13T13:58:29.165Z,1892
2019-01-13T13:59:31.208Z,2416
2019-01-13T14:00:33.543Z,2076
2019-01-13T14:01:35.588Z,2080
2019-01-13T14:02:37.927Z,2664
2019-01-13T14:03:45.657Z,2344
2019-01-13T14:04:48.040Z,2440
2019-01-13T14:05:50.100Z,2172
2019-01-13T14:06:52.142Z,2880
2019-01-13T14:07:54.199Z,3032
2019-01-13T14:08:56.273Z,3068
2019-01-13T14:09:58.332Z,3300
2019-01-13T14:11:00.382Z,3632
2019-01-13T14:12:02.421Z,3156
2019-01-13T14:13:04.483Z,2916
2019-01-13T14:14:06.530Z,2856
2019-01-13T14:15:08.866Z,2284
2019-01-13T14:16:10.910Z,2216
2019-01-13T14:17:12.957Z,2604
2019-01-13T14:18:15.018Z,2196
2019-01-13T14:19:17.130Z,2120
2019-01-13T14:20:19.191Z,3204
2019-01-13T14:21:21.528Z,4492
2019-01-13T14:22:23.567Z,4588
2019-01-13T14:23:25.611Z,3752
2019-01-13T14:24:27.656Z,3292
2019-01-13T14:25:29.714Z,3100
2019-01-13T14:26:31.763Z,3500
2019-01-13T14:27:33.819Z,3780
2019-01-13T14:28:35.863Z,4052
2019-01-13T14:29:37.925Z,3892
2019-01-13T14:30:39.967Z,3520
2019-01-13T14:31:42.074Z,3100
2019-01-13T14:32:44.410Z,2884
2019-01-13T14:33:52.643Z,3072
2019-01-13T14:34:55.109Z,2968